sensor_id;sensor_type;location;lat;lon;timestamp;P1;durP1;ratioP1;P2;durP2;ratioP2
74920;SDS011;63483;47.384;8.860;2023-02-26T00:01:47;3.65;;;1.60;;
74920;SDS011;63483;47.384;8.860;2023-02-26T00:04:13;2.60;;;1.63;;
74920;SDS011;63483;47.384;8.860;2023-02-26T00:06:39;4.00;;;1.73;;
74920;SDS011;63483;47.384;8.860;2023-02-26T00:09:16;3.00;;;1.85;;
74920;SDS011;63483;47.384;8.860;2023-02-26T00:11:42;3.60;;;1.20;;
74920;SDS011;63483;47.384;8.860;2023-02-26T00:14:13;2.80;;;1.38;;
74920;SDS011;63483;47.384;8.860;2023-02-26T00:16:39;2.50;;;1.40;;
74920;SDS011;63483;47.384;8.860;2023-02-26T00:19:06;3.13;;;1.30;;
74920;SDS011;63483;47.384;8.860;2023-02-26T00:21:33;3.00;;;1.42;;
74920;SDS011;63483;47.384;8.860;2023-02-26T00:23:59;3.63;;;1.33;;
74920;SDS011;63483;47.384;8.860;2023-02-26T00:26:27;4.25;;;1.75;;
74920;SDS011;63483;47.384;8.860;2023-02-26T00:28:54;2.43;;;1.23;;
74920;SDS011;63483;47.384;8.860;2023-02-26T00:31:20;3.20;;;1.52;;
74920;SDS011;63483;47.384;8.860;2023-02-26T00:33:48;4.70;;;2.30;;
74920;SDS011;63483;47.384;8.860;2023-02-26T00:38:56;3.05;;;1.85;;
74920;SDS011;63483;47.384;8.860;2023-02-26T00:41:31;3.70;;;1.67;;
74920;SDS011;63483;47.384;8.860;2023-02-26T00:43:56;4.10;;;1.83;;
74920;SDS011;63483;47.384;8.860;2023-02-26T00:49:15;4.38;;;2.10;;
74920;SDS011;63483;47.384;8.860;2023-02-26T00:52:01;5.55;;;1.63;;
74920;SDS011;63483;47.384;8.860;2023-02-26T00:54:30;4.13;;;1.47;;
74920;SDS011;63483;47.384;8.860;2023-02-26T00:56:56;4.47;;;1.48;;
74920;SDS011;63483;47.384;8.860;2023-02-26T00:59:23;3.22;;;1.33;;
74920;SDS011;63483;47.384;8.860;2023-02-26T01:01:49;4.50;;;1.50;;
74920;SDS011;63483;47.384;8.860;2023-02-26T01:04:16;5.28;;;2.05;;
74920;SDS011;63483;47.384;8.860;2023-02-26T01:06:44;3.97;;;1.77;;
74920;SDS011;63483;47.384;8.860;2023-02-26T01:09:14;2.30;;;1.10;;
74920;SDS011;63483;47.384;8.860;2023-02-26T01:11:47;5.70;;;2.50;;
74920;SDS011;63483;47.384;8.860;2023-02-26T01:14:13;6.20;;;2.00;;
74920;SDS011;63483;47.384;8.860;2023-02-26T01:17:26;3.87;;;1.83;;
74920;SDS011;63483;47.384;8.860;2023-02-26T01:19:50;2.85;;;1.30;;
74920;SDS011;63483;47.384;8.860;2023-02-26T01:22:26;3.58;;;1.45;;
74920;SDS011;63483;47.384;8.860;2023-02-26T01:25:00;3.90;;;2.00;;
74920;SDS011;63483;47.384;8.860;2023-02-26T01:27:28;4.13;;;1.67;;
74920;SDS011;63483;47.384;8.860;2023-02-26T01:29:53;2.80;;;1.50;;
74920;SDS011;63483;47.384;8.860;2023-02-26T01:32:24;4.03;;;1.70;;
74920;SDS011;63483;47.384;8.860;2023-02-26T01:34:59;6.43;;;2.00;;
74920;SDS011;63483;47.384;8.860;2023-02-26T01:43:09;5.68;;;2.13;;
74920;SDS011;63483;47.384;8.860;2023-02-26T01:45:58;3.95;;;2.00;;
74920;SDS011;63483;47.384;8.860;2023-02-26T01:48:54;4.63;;;2.35;;
74920;SDS011;63483;47.384;8.860;2023-02-26T01:54:05;3.88;;;2.03;;
74920;SDS011;63483;47.384;8.860;2023-02-26T01:56:30;4.73;;;2.37;;
74920;SDS011;63483;47.384;8.860;2023-02-26T01:58:56;4.32;;;3.00;;
74920;SDS011;63483;47.384;8.860;2023-02-26T02:01:22;4.00;;;2.40;;
74920;SDS011;63483;47.384;8.860;2023-02-26T02:03:47;5.33;;;2.23;;
74920;SDS011;63483;47.384;8.860;2023-02-26T02:06:15;4.23;;;2.70;;
74920;SDS011;63483;47.384;8.860;2023-02-26T02:08:44;4.10;;;1.95;;
74920;SDS011;63483;47.384;8.860;2023-02-26T02:11:10;5.17;;;2.47;;
74920;SDS011;63483;47.384;8.860;2023-02-26T02:24:44;3.60;;;2.60;;
74920;SDS011;63483;47.384;8.860;2023-02-26T02:32:48;5.05;;;3.17;;
74920;SDS011;63483;47.384;8.860;2023-02-26T02:35:19;5.00;;;2.78;;
74920;SDS011;63483;47.384;8.860;2023-02-26T02:40:30;5.70;;;2.57;;
74920;SDS011;63483;47.384;8.860;2023-02-26T02:48:28;4.28;;;2.80;;
74920;SDS011;63483;47.384;8.860;2023-02-26T02:51:06;5.68;;;2.80;;
74920;SDS011;63483;47.384;8.860;2023-02-26T02:53:43;4.87;;;3.03;;
74920;SDS011;63483;47.384;8.860;2023-02-26T02:56:16;4.50;;;2.50;;
74920;SDS011;63483;47.384;8.860;2023-02-26T02:58:48;5.05;;;2.45;;
74920;SDS011;63483;47.384;8.860;2023-02-26T03:01:21;4.50;;;2.53;;
74920;SDS011;63483;47.384;8.860;2023-02-26T03:04:01;5.07;;;2.53;;
74920;SDS011;63483;47.384;8.860;2023-02-26T03:06:32;4.37;;;2.40;;
74920;SDS011;63483;47.384;8.860;2023-02-26T03:08:59;5.18;;;2.78;;
74920;SDS011;63483;47.384;8.860;2023-02-26T03:11:25;4.85;;;2.42;;
74920;SDS011;63483;47.384;8.860;2023-02-26T03:13:50;12.68;;;3.58;;
74920;SDS011;63483;47.384;8.860;2023-02-26T03:19:04;5.82;;;2.70;;
74920;SDS011;63483;47.384;8.860;2023-02-26T03:24:42;3.90;;;2.22;;
74920;SDS011;63483;47.384;8.860;2023-02-26T03:30:04;4.67;;;2.80;;
74920;SDS011;63483;47.384;8.860;2023-02-26T03:35:28;5.32;;;2.60;;
74920;SDS011;63483;47.384;8.860;2023-02-26T03:38:06;4.47;;;2.33;;
74920;SDS011;63483;47.384;8.860;2023-02-26T03:40:40;4.60;;;2.60;;
74920;SDS011;63483;47.384;8.860;2023-02-26T03:43:21;3.80;;;2.22;;
74920;SDS011;63483;47.384;8.860;2023-02-26T03:45:51;3.35;;;2.80;;
74920;SDS011;63483;47.384;8.860;2023-02-26T03:48:22;3.53;;;2.45;;
74920;SDS011;63483;47.384;8.860;2023-02-26T03:50:52;4.18;;;2.90;;
74920;SDS011;63483;47.384;8.860;2023-02-26T03:53:26;7.05;;;3.13;;
74920;SDS011;63483;47.384;8.860;2023-02-26T03:56:04;3.43;;;2.23;;
74920;SDS011;63483;47.384;8.860;2023-02-26T03:58:35;3.92;;;2.00;;
74920;SDS011;63483;47.384;8.860;2023-02-26T04:01:03;4.05;;;2.70;;
74920;SDS011;63483;47.384;8.860;2023-02-26T04:06:07;5.80;;;2.80;;
74920;SDS011;63483;47.384;8.860;2023-02-26T04:08:32;5.53;;;2.53;;
74920;SDS011;63483;47.384;8.860;2023-02-26T04:10:59;4.00;;;2.90;;
74920;SDS011;63483;47.384;8.860;2023-02-26T04:13:30;5.75;;;2.50;;
74920;SDS011;63483;47.384;8.860;2023-02-26T04:15:56;4.40;;;3.10;;
74920;SDS011;63483;47.384;8.860;2023-02-26T04:18:21;4.87;;;3.30;;
74920;SDS011;63483;47.384;8.860;2023-02-26T04:20:47;5.13;;;3.00;;
74920;SDS011;63483;47.384;8.860;2023-02-26T04:23:12;8.23;;;3.30;;
74920;SDS011;63483;47.384;8.860;2023-02-26T04:25:37;3.77;;;2.40;;
74920;SDS011;63483;47.384;8.860;2023-02-26T04:28:03;4.68;;;2.53;;
74920;SDS011;63483;47.384;8.860;2023-02-26T04:30:28;5.23;;;3.10;;
74920;SDS011;63483;47.384;8.860;2023-02-26T04:32:54;4.83;;;2.83;;
74920;SDS011;63483;47.384;8.860;2023-02-26T04:35:19;3.60;;;2.60;;
74920;SDS011;63483;47.384;8.860;2023-02-26T04:37:45;5.17;;;3.00;;
74920;SDS011;63483;47.384;8.860;2023-02-26T04:40:10;4.93;;;2.47;;
74920;SDS011;63483;47.384;8.860;2023-02-26T04:42:36;4.73;;;2.43;;
74920;SDS011;63483;47.384;8.860;2023-02-26T04:45:01;6.63;;;2.23;;
74920;SDS011;63483;47.384;8.860;2023-02-26T04:47:27;3.78;;;2.30;;
74920;SDS011;63483;47.384;8.860;2023-02-26T04:49:53;5.00;;;3.20;;
74920;SDS011;63483;47.384;8.860;2023-02-26T04:52:18;4.43;;;2.60;;
74920;SDS011;63483;47.384;8.860;2023-02-26T04:54:43;3.60;;;1.67;;
74920;SDS011;63483;47.384;8.860;2023-02-26T04:57:09;2.87;;;1.60;;
74920;SDS011;63483;47.384;8.860;2023-02-26T04:59:34;2.20;;;1.50;;
74920;SDS011;63483;47.384;8.860;2023-02-26T05:01:59;3.10;;;1.43;;
74920;SDS011;63483;47.384;8.860;2023-02-26T05:04:25;5.03;;;1.77;;
74920;SDS011;63483;47.384;8.860;2023-02-26T05:06:50;3.50;;;1.30;;
74920;SDS011;63483;47.384;8.860;2023-02-26T05:09:15;4.33;;;1.80;;
74920;SDS011;63483;47.384;8.860;2023-02-26T05:11:41;2.45;;;1.40;;
74920;SDS011;63483;47.384;8.860;2023-02-26T05:14:06;2.40;;;1.27;;
74920;SDS011;63483;47.384;8.860;2023-02-26T05:16:32;3.37;;;1.60;;
74920;SDS011;63483;47.384;8.860;2023-02-26T05:18:57;3.50;;;1.70;;
74920;SDS011;63483;47.384;8.860;2023-02-26T05:21:22;1.80;;;1.10;;
74920;SDS011;63483;47.384;8.860;2023-02-26T05:23:48;2.97;;;1.60;;
74920;SDS011;63483;47.384;8.860;2023-02-26T05:26:13;5.43;;;1.93;;
74920;SDS011;63483;47.384;8.860;2023-02-26T05:28:38;3.15;;;1.65;;
74920;SDS011;63483;47.384;8.860;2023-02-26T05:31:04;2.67;;;1.47;;
74920;SDS011;63483;47.384;8.860;2023-02-26T05:33:30;2.47;;;1.70;;
74920;SDS011;63483;47.384;8.860;2023-02-26T05:35:56;3.50;;;1.70;;
74920;SDS011;63483;47.384;8.860;2023-02-26T05:38:22;2.00;;;1.30;;
74920;SDS011;63483;47.384;8.860;2023-02-26T05:40:47;3.72;;;1.70;;
74920;SDS011;63483;47.384;8.860;2023-02-26T05:43:13;2.63;;;1.50;;
74920;SDS011;63483;47.384;8.860;2023-02-26T05:45:38;3.40;;;1.50;;
74920;SDS011;63483;47.384;8.860;2023-02-26T05:48:03;3.58;;;1.80;;
74920;SDS011;63483;47.384;8.860;2023-02-26T05:50:29;3.50;;;1.13;;
74920;SDS011;63483;47.384;8.860;2023-02-26T05:52:54;3.63;;;1.87;;
74920;SDS011;63483;47.384;8.860;2023-02-26T05:55:20;2.85;;;1.70;;
74920;SDS011;63483;47.384;8.860;2023-02-26T05:57:45;2.55;;;1.08;;
74920;SDS011;63483;47.384;8.860;2023-02-26T06:00:11;2.67;;;1.33;;
74920;SDS011;63483;47.384;8.860;2023-02-26T06:02:37;3.03;;;1.45;;
74920;SDS011;63483;47.384;8.860;2023-02-26T06:05:02;3.37;;;1.83;;
74920;SDS011;63483;47.384;8.860;2023-02-26T06:07:27;2.83;;;1.23;;
74920;SDS011;63483;47.384;8.860;2023-02-26T06:09:53;3.40;;;1.80;;
74920;SDS011;63483;47.384;8.860;2023-02-26T06:12:18;2.87;;;1.77;;
74920;SDS011;63483;47.384;8.860;2023-02-26T06:14:44;3.00;;;1.50;;
74920;SDS011;63483;47.384;8.860;2023-02-26T06:17:09;3.55;;;1.38;;
74920;SDS011;63483;47.384;8.860;2023-02-26T06:19:34;5.37;;;1.17;;
74920;SDS011;63483;47.384;8.860;2023-02-26T06:22:00;3.43;;;1.70;;
74920;SDS011;63483;47.384;8.860;2023-02-26T06:24:25;2.70;;;1.40;;
74920;SDS011;63483;47.384;8.860;2023-02-26T06:26:51;4.57;;;1.90;;
74920;SDS011;63483;47.384;8.860;2023-02-26T06:29:16;4.30;;;1.30;;
74920;SDS011;63483;47.384;8.860;2023-02-26T06:31:44;3.72;;;1.40;;
74920;SDS011;63483;47.384;8.860;2023-02-26T06:34:10;4.50;;;1.77;;
74920;SDS011;63483;47.384;8.860;2023-02-26T06:36:35;4.35;;;2.08;;
74920;SDS011;63483;47.384;8.860;2023-02-26T06:39:00;2.90;;;1.67;;
74920;SDS011;63483;47.384;8.860;2023-02-26T06:41:26;3.67;;;1.63;;
74920;SDS011;63483;47.384;8.860;2023-02-26T06:43:51;3.40;;;1.63;;
74920;SDS011;63483;47.384;8.860;2023-02-26T06:46:16;3.43;;;1.63;;
74920;SDS011;63483;47.384;8.860;2023-02-26T06:48:42;4.07;;;1.87;;
74920;SDS011;63483;47.384;8.860;2023-02-26T06:51:07;2.23;;;1.43;;
74920;SDS011;63483;47.384;8.860;2023-02-26T06:53:33;3.13;;;1.60;;
74920;SDS011;63483;47.384;8.860;2023-02-26T06:55:59;4.30;;;2.07;;
74920;SDS011;63483;47.384;8.860;2023-02-26T06:58:24;5.43;;;1.67;;
74920;SDS011;63483;47.384;8.860;2023-02-26T07:00:49;5.07;;;1.70;;
74920;SDS011;63483;47.384;8.860;2023-02-26T07:03:15;3.30;;;1.83;;
74920;SDS011;63483;47.384;8.860;2023-02-26T07:05:43;2.95;;;1.88;;
74920;SDS011;63483;47.384;8.860;2023-02-26T07:08:09;3.92;;;1.73;;
74920;SDS011;63483;47.384;8.860;2023-02-26T07:10:35;4.27;;;1.43;;
74920;SDS011;63483;47.384;8.860;2023-02-26T07:13:01;2.67;;;1.77;;
74920;SDS011;63483;47.384;8.860;2023-02-26T07:15:27;3.55;;;2.40;;
74920;SDS011;63483;47.384;8.860;2023-02-26T07:17:53;4.07;;;1.63;;
74920;SDS011;63483;47.384;8.860;2023-02-26T07:20:18;3.23;;;1.97;;
74920;SDS011;63483;47.384;8.860;2023-02-26T07:22:44;3.27;;;1.70;;
74920;SDS011;63483;47.384;8.860;2023-02-26T07:25:10;3.60;;;1.87;;
74920;SDS011;63483;47.384;8.860;2023-02-26T07:27:36;3.20;;;1.92;;
74920;SDS011;63483;47.384;8.860;2023-02-26T07:30:03;3.80;;;2.03;;
74920;SDS011;63483;47.384;8.860;2023-02-26T07:32:30;3.85;;;1.50;;
74920;SDS011;63483;47.384;8.860;2023-02-26T07:34:56;3.72;;;1.52;;
74920;SDS011;63483;47.384;8.860;2023-02-26T07:37:21;3.20;;;1.63;;
74920;SDS011;63483;47.384;8.860;2023-02-26T07:39:47;5.15;;;1.40;;
74920;SDS011;63483;47.384;8.860;2023-02-26T07:42:12;2.63;;;1.50;;
74920;SDS011;63483;47.384;8.860;2023-02-26T07:44:38;1.93;;;1.03;;
74920;SDS011;63483;47.384;8.860;2023-02-26T07:47:03;1.83;;;1.00;;
74920;SDS011;63483;47.384;8.860;2023-02-26T07:49:29;5.17;;;2.13;;
74920;SDS011;63483;47.384;8.860;2023-02-26T07:51:56;3.28;;;1.42;;
74920;SDS011;63483;47.384;8.860;2023-02-26T07:54:22;3.93;;;1.60;;
74920;SDS011;63483;47.384;8.860;2023-02-26T07:56:47;3.63;;;1.25;;
74920;SDS011;63483;47.384;8.860;2023-02-26T07:59:12;4.30;;;2.17;;
74920;SDS011;63483;47.384;8.860;2023-02-26T08:01:38;3.23;;;1.30;;
74920;SDS011;63483;47.384;8.860;2023-02-26T08:04:03;2.33;;;1.53;;
74920;SDS011;63483;47.384;8.860;2023-02-26T08:06:28;3.00;;;1.60;;
74920;SDS011;63483;47.384;8.860;2023-02-26T08:08:54;4.90;;;1.63;;
74920;SDS011;63483;47.384;8.860;2023-02-26T08:11:19;3.67;;;1.27;;
74920;SDS011;63483;47.384;8.860;2023-02-26T08:13:45;3.17;;;1.60;;
74920;SDS011;63483;47.384;8.860;2023-02-26T08:16:10;3.67;;;1.00;;
74920;SDS011;63483;47.384;8.860;2023-02-26T08:18:35;5.00;;;1.80;;
74920;SDS011;63483;47.384;8.860;2023-02-26T08:21:01;1.90;;;1.00;;
74920;SDS011;63483;47.384;8.860;2023-02-26T08:23:26;3.63;;;1.60;;
74920;SDS011;63483;47.384;8.860;2023-02-26T08:26:10;5.57;;;1.63;;
74920;SDS011;63483;47.384;8.860;2023-02-26T08:28:37;2.80;;;1.40;;
74920;SDS011;63483;47.384;8.860;2023-02-26T08:31:03;3.50;;;1.57;;
74920;SDS011;63483;47.384;8.860;2023-02-26T08:33:29;3.20;;;1.67;;
74920;SDS011;63483;47.384;8.860;2023-02-26T08:35:54;4.53;;;1.90;;
74920;SDS011;63483;47.384;8.860;2023-02-26T08:38:21;4.32;;;1.50;;
74920;SDS011;63483;47.384;8.860;2023-02-26T08:40:50;3.33;;;1.93;;
74920;SDS011;63483;47.384;8.860;2023-02-26T08:43:16;4.07;;;2.17;;
74920;SDS011;63483;47.384;8.860;2023-02-26T08:45:43;2.75;;;1.52;;
74920;SDS011;63483;47.384;8.860;2023-02-26T08:48:09;5.00;;;2.00;;
74920;SDS011;63483;47.384;8.860;2023-02-26T08:50:34;4.13;;;2.00;;
74920;SDS011;63483;47.384;8.860;2023-02-26T08:52:59;3.67;;;1.60;;
74920;SDS011;63483;47.384;8.860;2023-02-26T08:55:24;5.57;;;1.87;;
74920;SDS011;63483;47.384;8.860;2023-02-26T08:57:50;3.90;;;1.70;;
74920;SDS011;63483;47.384;8.860;2023-02-26T09:00:15;2.93;;;1.80;;
74920;SDS011;63483;47.384;8.860;2023-02-26T09:02:42;2.45;;;1.73;;
74920;SDS011;63483;47.384;8.860;2023-02-26T09:05:08;3.15;;;1.77;;
74920;SDS011;63483;47.384;8.860;2023-02-26T09:07:34;3.33;;;1.40;;
74920;SDS011;63483;47.384;8.860;2023-02-26T09:09:59;4.18;;;1.33;;
74920;SDS011;63483;47.384;8.860;2023-02-26T09:12:25;3.78;;;1.92;;
74920;SDS011;63483;47.384;8.860;2023-02-26T09:14:50;2.80;;;1.70;;
74920;SDS011;63483;47.384;8.860;2023-02-26T09:17:16;5.10;;;1.50;;
74920;SDS011;63483;47.384;8.860;2023-02-26T09:19:41;3.80;;;2.10;;
74920;SDS011;63483;47.384;8.860;2023-02-26T09:22:06;3.80;;;2.03;;
74920;SDS011;63483;47.384;8.860;2023-02-26T09:24:32;4.05;;;1.35;;
74920;SDS011;63483;47.384;8.860;2023-02-26T09:26:58;7.07;;;1.95;;
74920;SDS011;63483;47.384;8.860;2023-02-26T09:29:25;4.87;;;1.77;;
74920;SDS011;63483;47.384;8.860;2023-02-26T09:31:50;2.80;;;1.45;;
74920;SDS011;63483;47.384;8.860;2023-02-26T09:34:15;3.70;;;1.73;;
74920;SDS011;63483;47.384;8.860;2023-02-26T09:36:41;2.27;;;1.40;;
74920;SDS011;63483;47.384;8.860;2023-02-26T09:39:07;3.60;;;1.80;;
74920;SDS011;63483;47.384;8.860;2023-02-26T09:41:35;4.27;;;1.60;;
74920;SDS011;63483;47.384;8.860;2023-02-26T09:49:15;3.17;;;1.40;;
74920;SDS011;63483;47.384;8.860;2023-02-26T09:51:43;4.03;;;1.70;;
74920;SDS011;63483;47.384;8.860;2023-02-26T09:54:21;3.13;;;1.40;;
74920;SDS011;63483;47.384;8.860;2023-02-26T09:56:49;2.87;;;1.63;;
74920;SDS011;63483;47.384;8.860;2023-02-26T09:59:16;3.45;;;1.73;;
74920;SDS011;63483;47.384;8.860;2023-02-26T10:07:20;3.78;;;1.90;;
74920;SDS011;63483;47.384;8.860;2023-02-26T10:10:06;3.50;;;1.90;;
74920;SDS011;63483;47.384;8.860;2023-02-26T10:12:39;5.55;;;2.42;;
74920;SDS011;63483;47.384;8.860;2023-02-26T10:15:11;3.30;;;2.10;;
74920;SDS011;63483;47.384;8.860;2023-02-26T10:17:56;2.65;;;1.35;;
74920;SDS011;63483;47.384;8.860;2023-02-26T10:23:49;3.15;;;1.60;;
74920;SDS011;63483;47.384;8.860;2023-02-26T10:26:24;3.38;;;1.60;;
74920;SDS011;63483;47.384;8.860;2023-02-26T10:31:32;4.35;;;1.75;;
74920;SDS011;63483;47.384;8.860;2023-02-26T10:34:14;2.88;;;1.70;;
74920;SDS011;63483;47.384;8.860;2023-02-26T10:36:50;4.60;;;1.20;;
74920;SDS011;63483;47.384;8.860;2023-02-26T10:39:29;2.67;;;1.67;;
74920;SDS011;63483;47.384;8.860;2023-02-26T10:41:58;3.20;;;1.93;;
74920;SDS011;63483;47.384;8.860;2023-02-26T10:45:01;4.95;;;1.95;;
74920;SDS011;63483;47.384;8.860;2023-02-26T10:47:44;2.38;;;1.30;;
74920;SDS011;63483;47.384;8.860;2023-02-26T10:50:18;3.50;;;1.25;;
74920;SDS011;63483;47.384;8.860;2023-02-26T10:52:46;2.85;;;1.17;;
74920;SDS011;63483;47.384;8.860;2023-02-26T11:00:33;3.28;;;1.77;;
74920;SDS011;63483;47.384;8.860;2023-02-26T11:02:59;2.45;;;1.35;;
74920;SDS011;63483;47.384;8.860;2023-02-26T11:05:28;3.97;;;2.03;;
74920;SDS011;63483;47.384;8.860;2023-02-26T11:07:57;2.97;;;1.47;;
74920;SDS011;63483;47.384;8.860;2023-02-26T11:10:35;3.58;;;1.63;;
74920;SDS011;63483;47.384;8.860;2023-02-26T11:13:05;3.00;;;1.73;;
74920;SDS011;63483;47.384;8.860;2023-02-26T11:15:30;3.47;;;1.40;;
74920;SDS011;63483;47.384;8.860;2023-02-26T11:17:56;3.15;;;2.00;;
74920;SDS011;63483;47.384;8.860;2023-02-26T11:23:09;4.28;;;1.60;;
74920;SDS011;63483;47.384;8.860;2023-02-26T11:25:37;3.13;;;1.88;;
74920;SDS011;63483;47.384;8.860;2023-02-26T11:28:07;3.20;;;1.48;;
74920;SDS011;63483;47.384;8.860;2023-02-26T11:30:43;2.42;;;1.27;;
74920;SDS011;63483;47.384;8.860;2023-02-26T11:33:21;3.10;;;1.60;;
74920;SDS011;63483;47.384;8.860;2023-02-26T11:35:51;3.00;;;1.40;;
74920;SDS011;63483;47.384;8.860;2023-02-26T11:38:18;3.17;;;1.65;;
74920;SDS011;63483;47.384;8.860;2023-02-26T11:40:51;3.07;;;1.90;;
74920;SDS011;63483;47.384;8.860;2023-02-26T11:43:20;3.05;;;1.40;;
74920;SDS011;63483;47.384;8.860;2023-02-26T11:45:48;3.05;;;2.00;;
74920;SDS011;63483;47.384;8.860;2023-02-26T11:48:20;4.03;;;1.85;;
74920;SDS011;63483;47.384;8.860;2023-02-26T11:50:51;4.85;;;1.52;;
74920;SDS011;63483;47.384;8.860;2023-02-26T11:53:24;2.33;;;1.33;;
74920;SDS011;63483;47.384;8.860;2023-02-26T11:55:59;2.88;;;1.30;;
74920;SDS011;63483;47.384;8.860;2023-02-26T11:58:34;2.67;;;1.75;;
74920;SDS011;63483;47.384;8.860;2023-02-26T12:01:02;2.97;;;1.48;;
74920;SDS011;63483;47.384;8.860;2023-02-26T12:03:31;3.20;;;1.30;;
74920;SDS011;63483;47.384;8.860;2023-02-26T12:05:58;2.93;;;1.23;;
74920;SDS011;63483;47.384;8.860;2023-02-26T12:14:07;2.65;;;1.27;;
74920;SDS011;63483;47.384;8.860;2023-02-26T12:27:50;2.75;;;1.15;;
74920;SDS011;63483;47.384;8.860;2023-02-26T12:49:15;2.65;;;1.20;;
74920;SDS011;63483;47.384;8.860;2023-02-26T12:51:53;2.95;;;1.38;;
74920;SDS011;63483;47.384;8.860;2023-02-26T12:57:02;1.98;;;1.27;;
74920;SDS011;63483;47.384;8.860;2023-02-26T12:59:56;3.23;;;1.53;;
74920;SDS011;63483;47.384;8.860;2023-02-26T13:11:00;4.75;;;1.80;;
74920;SDS011;63483;47.384;8.860;2023-02-26T13:16:10;3.40;;;1.55;;
74920;SDS011;63483;47.384;8.860;2023-02-26T13:18:55;3.45;;;1.85;;
74920;SDS011;63483;47.384;8.860;2023-02-26T13:21:27;2.42;;;1.25;;
74920;SDS011;63483;47.384;8.860;2023-02-26T13:24:01;2.78;;;1.83;;
74920;SDS011;63483;47.384;8.860;2023-02-26T13:26:29;2.67;;;1.20;;
74920;SDS011;63483;47.384;8.860;2023-02-26T13:28:58;7.47;;;1.73;;
74920;SDS011;63483;47.384;8.860;2023-02-26T13:31:30;4.57;;;1.50;;
74920;SDS011;63483;47.384;8.860;2023-02-26T13:34:20;2.65;;;1.05;;
74920;SDS011;63483;47.384;8.860;2023-02-26T13:36:54;2.72;;;1.58;;
74920;SDS011;63483;47.384;8.860;2023-02-26T13:42:34;2.53;;;1.63;;
74920;SDS011;63483;47.384;8.860;2023-02-26T13:45:12;3.25;;;1.60;;
74920;SDS011;63483;47.384;8.860;2023-02-26T13:50:40;2.65;;;1.77;;
74920;SDS011;63483;47.384;8.860;2023-02-26T13:56:21;2.67;;;1.52;;
74920;SDS011;63483;47.384;8.860;2023-02-26T14:01:49;2.60;;;1.70;;
74920;SDS011;63483;47.384;8.860;2023-02-26T14:06:44;2.50;;;1.47;;
74920;SDS011;63483;47.384;8.860;2023-02-26T14:10:14;2.10;;;1.20;;
74920;SDS011;63483;47.384;8.860;2023-02-26T14:12:30;3.13;;;1.80;;
74920;SDS011;63483;47.384;8.860;2023-02-26T14:20:25;2.40;;;1.42;;
74920;SDS011;63483;47.384;8.860;2023-02-26T14:25:33;3.78;;;1.75;;
74920;SDS011;63483;47.384;8.860;2023-02-26T14:30:50;2.13;;;1.30;;
74920;SDS011;63483;47.384;8.860;2023-02-26T14:33:26;2.28;;;1.83;;
74920;SDS011;63483;47.384;8.860;2023-02-26T14:35:54;2.25;;;1.40;;
74920;SDS011;63483;47.384;8.860;2023-02-26T14:38:27;3.42;;;1.30;;
74920;SDS011;63483;47.384;8.860;2023-02-26T14:41:05;3.80;;;1.77;;
74920;SDS011;63483;47.384;8.860;2023-02-26T14:43:35;2.37;;;1.53;;
74920;SDS011;63483;47.384;8.860;2023-02-26T14:46:03;2.95;;;1.45;;
74920;SDS011;63483;47.384;8.860;2023-02-26T14:48:30;2.45;;;1.80;;
74920;SDS011;63483;47.384;8.860;2023-02-26T14:56:36;2.03;;;1.30;;
74920;SDS011;63483;47.384;8.860;2023-02-26T15:15:44;3.85;;;1.95;;
74920;SDS011;63483;47.384;8.860;2023-02-26T15:26:03;2.20;;;1.42;;
74920;SDS011;63483;47.384;8.860;2023-02-26T15:30:56;1.87;;;1.17;;
74920;SDS011;63483;47.384;8.860;2023-02-26T15:33:25;2.38;;;1.75;;
74920;SDS011;63483;47.384;8.860;2023-02-26T15:35:53;3.65;;;2.00;;
74920;SDS011;63483;47.384;8.860;2023-02-26T15:38:19;3.85;;;1.95;;
74920;SDS011;63483;47.384;8.860;2023-02-26T15:40:44;2.77;;;2.13;;
74920;SDS011;63483;47.384;8.860;2023-02-26T15:43:13;3.03;;;2.13;;
74920;SDS011;63483;47.384;8.860;2023-02-26T15:45:41;4.70;;;2.90;;
74920;SDS011;63483;47.384;8.860;2023-02-26T15:48:13;4.05;;;2.55;;
74920;SDS011;63483;47.384;8.860;2023-02-26T15:50:45;3.28;;;1.98;;
74920;SDS011;63483;47.384;8.860;2023-02-26T15:53:26;3.35;;;1.77;;
74920;SDS011;63483;47.384;8.860;2023-02-26T15:55:56;2.25;;;1.20;;
74920;SDS011;63483;47.384;8.860;2023-02-26T15:58:45;1.90;;;1.30;;
74920;SDS011;63483;47.384;8.860;2023-02-26T16:01:26;3.03;;;2.13;;
74920;SDS011;63483;47.384;8.860;2023-02-26T16:04:01;3.40;;;2.00;;
74920;SDS011;63483;47.384;8.860;2023-02-26T16:06:36;5.38;;;2.63;;
74920;SDS011;63483;47.384;8.860;2023-02-26T16:09:05;2.72;;;2.00;;
74920;SDS011;63483;47.384;8.860;2023-02-26T16:11:33;3.57;;;1.80;;
74920;SDS011;63483;47.384;8.860;2023-02-26T16:14:03;2.63;;;1.85;;
74920;SDS011;63483;47.384;8.860;2023-02-26T16:16:40;3.17;;;1.85;;
74920;SDS011;63483;47.384;8.860;2023-02-26T16:19:12;2.85;;;1.80;;
74920;SDS011;63483;47.384;8.860;2023-02-26T16:21:39;2.90;;;1.92;;
74920;SDS011;63483;47.384;8.860;2023-02-26T16:24:07;2.77;;;1.80;;
74920;SDS011;63483;47.384;8.860;2023-02-26T16:26:40;2.60;;;1.90;;
74920;SDS011;63483;47.384;8.860;2023-02-26T16:29:23;3.10;;;2.15;;
74920;SDS011;63483;47.384;8.860;2023-02-26T16:31:52;2.35;;;1.35;;
74920;SDS011;63483;47.384;8.860;2023-02-26T16:34:38;2.70;;;1.98;;
74920;SDS011;63483;47.384;8.860;2023-02-26T16:37:20;3.27;;;1.90;;
74920;SDS011;63483;47.384;8.860;2023-02-26T16:39:54;2.42;;;1.75;;
74920;SDS011;63483;47.384;8.860;2023-02-26T16:42:43;3.45;;;2.38;;
74920;SDS011;63483;47.384;8.860;2023-02-26T16:47:40;2.70;;;1.67;;
74920;SDS011;63483;47.384;8.860;2023-02-26T16:50:12;3.80;;;1.80;;
74920;SDS011;63483;47.384;8.860;2023-02-26T16:52:45;4.18;;;1.90;;
74920;SDS011;63483;47.384;8.860;2023-02-26T16:55:18;2.20;;;1.67;;
74920;SDS011;63483;47.384;8.860;2023-02-26T16:57:43;2.35;;;1.38;;
74920;SDS011;63483;47.384;8.860;2023-02-26T17:00:16;3.33;;;2.20;;
74920;SDS011;63483;47.384;8.860;2023-02-26T17:02:53;2.90;;;1.80;;
74920;SDS011;63483;47.384;8.860;2023-02-26T17:05:31;2.75;;;1.48;;
74920;SDS011;63483;47.384;8.860;2023-02-26T17:08:08;3.17;;;1.90;;
74920;SDS011;63483;47.384;8.860;2023-02-26T17:10:43;3.10;;;1.83;;
74920;SDS011;63483;47.384;8.860;2023-02-26T17:13:13;3.77;;;1.70;;
74920;SDS011;63483;47.384;8.860;2023-02-26T17:15:41;3.70;;;2.10;;
74920;SDS011;63483;47.384;8.860;2023-02-26T17:18:09;2.30;;;1.20;;
74920;SDS011;63483;47.384;8.860;2023-02-26T17:20:34;3.47;;;1.57;;
74920;SDS011;63483;47.384;8.860;2023-02-26T17:23:01;2.97;;;1.70;;
74920;SDS011;63483;47.384;8.860;2023-02-26T17:25:34;2.20;;;1.50;;
74920;SDS011;63483;47.384;8.860;2023-02-26T17:28:03;2.20;;;1.30;;
74920;SDS011;63483;47.384;8.860;2023-02-26T17:30:29;2.15;;;1.00;;
74920;SDS011;63483;47.384;8.860;2023-02-26T17:32:57;2.88;;;1.75;;
74920;SDS011;63483;47.384;8.860;2023-02-26T17:35:28;2.45;;;1.38;;
74920;SDS011;63483;47.384;8.860;2023-02-26T17:37:55;2.67;;;1.48;;
74920;SDS011;63483;47.384;8.860;2023-02-26T17:40:28;2.13;;;1.53;;
74920;SDS011;63483;47.384;8.860;2023-02-26T17:42:57;2.30;;;1.27;;
74920;SDS011;63483;47.384;8.860;2023-02-26T17:45:24;2.60;;;1.90;;
74920;SDS011;63483;47.384;8.860;2023-02-26T17:47:49;3.33;;;2.03;;
74920;SDS011;63483;47.384;8.860;2023-02-26T17:50:25;3.08;;;2.10;;
74920;SDS011;63483;47.384;8.860;2023-02-26T17:52:56;3.03;;;2.20;;
74920;SDS011;63483;47.384;8.860;2023-02-26T17:55:21;3.53;;;2.37;;
74920;SDS011;63483;47.384;8.860;2023-02-26T17:57:47;3.60;;;1.80;;
74920;SDS011;63483;47.384;8.860;2023-02-26T18:00:15;6.00;;;2.13;;
74920;SDS011;63483;47.384;8.860;2023-02-26T18:02:41;3.40;;;1.80;;
74920;SDS011;63483;47.384;8.860;2023-02-26T18:05:07;4.18;;;2.65;;
74920;SDS011;63483;47.384;8.860;2023-02-26T18:07:33;4.85;;;2.55;;
74920;SDS011;63483;47.384;8.860;2023-02-26T18:09:59;3.53;;;2.25;;